sensor_id;sensor_type;location;lat;lon;timestamp;temperature;humidity
983;DHT22;480;48.124;11.578;2023-05-10T00:00:49;14.80;99.90
983;DHT22;480;48.124;11.578;2023-05-10T00:03:16;14.90;99.90
983;DHT22;480;48.124;11.578;2023-05-10T00:05:43;14.90;99.90
983;DHT22;480;48.124;11.578;2023-05-10T00:08:10;15.10;99.90
983;DHT22;480;48.124;11.578;2023-05-10T00:10:37;15.10;99.90
983;DHT22;480;48.124;11.578;2023-05-10T00:13:04;15.10;99.90
983;DHT22;480;48.124;11.578;2023-05-10T00:15:33;15.00;99.90
983;DHT22;480;48.124;11.578;2023-05-10T00:18:00;15.00;99.90
983;DHT22;480;48.124;11.578;2023-05-10T00:20:27;15.00;99.90
983;DHT22;480;48.124;11.578;2023-05-10T00:22:54;15.00;99.90
983;DHT22;480;48.124;11.578;2023-05-10T00:25:21;15.00;99.90
983;DHT22;480;48.124;11.578;2023-05-10T00:27:48;15.10;99.90
983;DHT22;480;48.124;11.578;2023-05-10T00:30:15;15.10;99.90
983;DHT22;480;48.124;11.578;2023-05-10T00:32:43;15.10;99.90
983;DHT22;480;48.124;11.578;2023-05-10T00:35:10;15.00;99.90
983;DHT22;480;48.124;11.578;2023-05-10T00:37:37;14.90;99.90
983;DHT22;480;48.124;11.578;2023-05-10T00:40:06;14.90;99.90
983;DHT22;480;48.124;11.578;2023-05-10T00:42:33;14.90;99.90
983;DHT22;480;48.124;11.578;2023-05-10T00:45:00;14.90;99.90
983;DHT22;480;48.124;11.578;2023-05-10T00:47:28;14.90;99.90
983;DHT22;480;48.124;11.578;2023-05-10T00:49:56;14.80;99.90
983;DHT22;480;48.124;11.578;2023-05-10T00:52:23;14.70;99.90
983;DHT22;480;48.124;11.578;2023-05-10T00:54:52;14.70;99.90
983;DHT22;480;48.124;11.578;2023-05-10T00:57:19;14.70;99.90
983;DHT22;480;48.124;11.578;2023-05-10T00:59:46;14.70;99.90
983;DHT22;480;48.124;11.578;2023-05-10T01:02:13;14.70;99.90
983;DHT22;480;48.124;11.578;2023-05-10T01:04:40;14.70;99.90
983;DHT22;480;48.124;11.578;2023-05-10T01:07:09;14.70;99.90
983;DHT22;480;48.124;11.578;2023-05-10T01:09:36;14.70;99.90
983;DHT22;480;48.124;11.578;2023-05-10T01:12:05;14.70;99.90
983;DHT22;480;48.124;11.578;2023-05-10T01:14:33;14.70;99.90
983;DHT22;480;48.124;11.578;2023-05-10T01:17:02;14.80;99.90
983;DHT22;480;48.124;11.578;2023-05-10T01:19:31;14.70;99.90
983;DHT22;480;48.124;11.578;2023-05-10T01:22:06;14.70;99.90
983;DHT22;480;48.124;11.578;2023-05-10T01:25:04;14.70;99.90
983;DHT22;480;48.124;11.578;2023-05-10T01:31:06;14.70;99.90
983;DHT22;480;48.124;11.578;2023-05-10T01:33:40;14.70;99.90
983;DHT22;480;48.124;11.578;2023-05-10T01:36:15;14.70;99.90
983;DHT22;480;48.124;11.578;2023-05-10T01:39:02;14.70;99.90
983;DHT22;480;48.124;11.578;2023-05-10T01:41:40;14.60;99.90
983;DHT22;480;48.124;11.578;2023-05-10T01:44:16;14.60;99.90
983;DHT22;480;48.124;11.578;2023-05-10T01:46:47;14.60;99.90
983;DHT22;480;48.124;11.578;2023-05-10T01:49:22;14.70;99.90
983;DHT22;480;48.124;11.578;2023-05-10T01:51:52;14.70;99.90
983;DHT22;480;48.124;11.578;2023-05-10T01:54:21;14.60;99.90
983;DHT22;480;48.124;11.578;2023-05-10T01:56:55;14.60;99.90
983;DHT22;480;48.124;11.578;2023-05-10T01:59:24;14.60;99.90
983;DHT22;480;48.124;11.578;2023-05-10T02:01:53;14.70;99.90
983;DHT22;480;48.124;11.578;2023-05-10T02:04:22;14.70;99.90
983;DHT22;480;48.124;11.578;2023-05-10T02:06:51;14.70;99.90
983;DHT22;480;48.124;11.578;2023-05-10T02:09:20;14.60;99.90
983;DHT22;480;48.124;11.578;2023-05-10T02:11:48;14.60;99.90
983;DHT22;480;48.124;11.578;2023-05-10T02:14:15;14.70;99.90
983;DHT22;480;48.124;11.578;2023-05-10T02:16:45;14.80;99.90
983;DHT22;480;48.124;11.578;2023-05-10T02:19:13;14.70;99.90
983;DHT22;480;48.124;11.578;2023-05-10T02:21:43;14.80;99.90
983;DHT22;480;48.124;11.578;2023-05-10T02:24:11;14.90;99.90
983;DHT22;480;48.124;11.578;2023-05-10T02:26:38;14.90;99.90
983;DHT22;480;48.124;11.578;2023-05-10T02:29:07;14.90;99.90
983;DHT22;480;48.124;11.578;2023-05-10T02:31:35;14.90;99.90
983;DHT22;480;48.124;11.578;2023-05-10T02:34:04;14.80;99.90
983;DHT22;480;48.124;11.578;2023-05-10T02:36:33;14.80;99.90
983;DHT22;480;48.124;11.578;2023-05-10T02:39:02;14.80;99.90
983;DHT22;480;48.124;11.578;2023-05-10T02:41:31;14.90;99.90
983;DHT22;480;48.124;11.578;2023-05-10T02:44:01;14.90;99.90
983;DHT22;480;48.124;11.578;2023-05-10T02:46:29;14.90;99.90
983;DHT22;480;48.124;11.578;2023-05-10T02:48:56;14.90;99.90
983;DHT22;480;48.124;11.578;2023-05-10T02:51:25;14.90;99.90
983;DHT22;480;48.124;11.578;2023-05-10T02:53:56;14.90;99.90
983;DHT22;480;48.124;11.578;2023-05-10T02:56:28;14.90;99.90
983;DHT22;480;48.124;11.578;2023-05-10T02:58:56;15.00;99.90
983;DHT22;480;48.124;11.578;2023-05-10T03:01:23;15.00;99.90
983;DHT22;480;48.124;11.578;2023-05-10T03:03:50;15.00;99.90
983;DHT22;480;48.124;11.578;2023-05-10T03:06:17;15.00;99.90
983;DHT22;480;48.124;11.578;2023-05-10T03:08:45;14.90;99.90
983;DHT22;480;48.124;11.578;2023-05-10T03:11:31;14.90;99.90
983;DHT22;480;48.124;11.578;2023-05-10T03:14:10;14.90;99.90
983;DHT22;480;48.124;11.578;2023-05-10T03:16:42;14.80;99.90
983;DHT22;480;48.124;11.578;2023-05-10T03:19:15;14.80;99.90
983;DHT22;480;48.124;11.578;2023-05-10T03:21:47;14.70;99.90
983;DHT22;480;48.124;11.578;2023-05-10T03:24:17;14.60;99.90
983;DHT22;480;48.124;11.578;2023-05-10T03:26:47;14.50;99.90
983;DHT22;480;48.124;11.578;2023-05-10T03:29:15;14.40;99.90
983;DHT22;480;48.124;11.578;2023-05-10T03:31:44;14.40;99.90
983;DHT22;480;48.124;11.578;2023-05-10T03:34:11;14.40;99.90
983;DHT22;480;48.124;11.578;2023-05-10T03:36:37;14.40;99.90
983;DHT22;480;48.124;11.578;2023-05-10T03:39:04;14.40;99.90
983;DHT22;480;48.124;11.578;2023-05-10T03:41:33;14.30;99.90
983;DHT22;480;48.124;11.578;2023-05-10T03:44:03;14.30;99.90
983;DHT22;480;48.124;11.578;2023-05-10T03:46:30;14.20;99.90
983;DHT22;480;48.124;11.578;2023-05-10T03:48:57;14.30;99.90
983;DHT22;480;48.124;11.578;2023-05-10T03:51:25;14.30;99.90
983;DHT22;480;48.124;11.578;2023-05-10T03:53:53;14.30;99.90
983;DHT22;480;48.124;11.578;2023-05-10T03:56:21;14.40;99.90
983;DHT22;480;48.124;11.578;2023-05-10T03:58:48;14.40;99.90
983;DHT22;480;48.124;11.578;2023-05-10T04:01:16;14.40;99.90
983;DHT22;480;48.124;11.578;2023-05-10T04:03:43;14.40;99.90
983;DHT22;480;48.124;11.578;2023-05-10T04:06:10;14.40;99.90
983;DHT22;480;48.124;11.578;2023-05-10T04:08:37;14.30;99.90
983;DHT22;480;48.124;11.578;2023-05-10T04:11:08;14.30;99.90
983;DHT22;480;48.124;11.578;2023-05-10T04:13:35;14.20;99.90
983;DHT22;480;48.124;11.578;2023-05-10T04:16:02;14.20;99.90
983;DHT22;480;48.124;11.578;2023-05-10T04:18:31;14.20;99.90
983;DHT22;480;48.124;11.578;2023-05-10T04:20:58;14.20;99.90
983;DHT22;480;48.124;11.578;2023-05-10T04:23:25;14.20;99.90
983;DHT22;480;48.124;11.578;2023-05-10T04:25:58;14.10;99.90
983;DHT22;480;48.124;11.578;2023-05-10T04:28:25;14.20;99.90
983;DHT22;480;48.124;11.578;2023-05-10T04:30:52;14.10;99.90
983;DHT22;480;48.124;11.578;2023-05-10T04:33:20;14.10;99.90
983;DHT22;480;48.124;11.578;2023-05-10T04:35:48;14.20;99.90
983;DHT22;480;48.124;11.578;2023-05-10T04:38:15;14.20;99.90
983;DHT22;480;48.124;11.578;2023-05-10T04:40:42;14.10;99.90
983;DHT22;480;48.124;11.578;2023-05-10T04:43:09;14.20;99.90
983;DHT22;480;48.124;11.578;2023-05-10T04:45:36;14.20;99.90
983;DHT22;480;48.124;11.578;2023-05-10T04:48:03;14.30;99.90
983;DHT22;480;48.124;11.578;2023-05-10T04:50:30;14.20;99.90
983;DHT22;480;48.124;11.578;2023-05-10T04:52:59;14.20;99.90
983;DHT22;480;48.124;11.578;2023-05-10T04:55:26;14.20;99.90
983;DHT22;480;48.124;11.578;2023-05-10T04:57:54;14.00;99.90
983;DHT22;480;48.124;11.578;2023-05-10T05:00:22;13.90;99.90
983;DHT22;480;48.124;11.578;2023-05-10T05:02:50;13.80;99.90
983;DHT22;480;48.124;11.578;2023-05-10T05:05:17;13.60;99.90
983;DHT22;480;48.124;11.578;2023-05-10T05:07:44;13.50;99.90
983;DHT22;480;48.124;11.578;2023-05-10T05:10:12;13.50;99.90
983;DHT22;480;48.124;11.578;2023-05-10T05:12:39;13.40;99.90
983;DHT22;480;48.124;11.578;2023-05-10T05:15:07;13.30;99.90
983;DHT22;480;48.124;11.578;2023-05-10T05:17:35;13.30;99.90
983;DHT22;480;48.124;11.578;2023-05-10T05:20:02;13.30;99.90
983;DHT22;480;48.124;11.578;2023-05-10T05:22:29;13.20;99.90
983;DHT22;480;48.124;11.578;2023-05-10T05:24:57;13.20;99.90
983;DHT22;480;48.124;11.578;2023-05-10T05:27:26;13.20;99.90
983;DHT22;480;48.124;11.578;2023-05-10T05:29:53;13.00;99.90
983;DHT22;480;48.124;11.578;2023-05-10T05:32:20;13.10;99.90
983;DHT22;480;48.124;11.578;2023-05-10T05:34:47;13.00;99.90
983;DHT22;480;48.124;11.578;2023-05-10T05:37:15;13.00;99.90
983;DHT22;480;48.124;11.578;2023-05-10T05:39:42;13.00;99.90
983;DHT22;480;48.124;11.578;2023-05-10T05:42:09;13.00;99.90
983;DHT22;480;48.124;11.578;2023-05-10T05:44:38;13.00;99.90
983;DHT22;480;48.124;11.578;2023-05-10T05:47:05;13.00;99.90
983;DHT22;480;48.124;11.578;2023-05-10T05:49:33;13.00;99.90
983;DHT22;480;48.124;11.578;2023-05-10T05:52:00;13.00;99.90
983;DHT22;480;48.124;11.578;2023-05-10T05:54:27;13.00;99.90
983;DHT22;480;48.124;11.578;2023-05-10T05:56:54;13.00;99.90
983;DHT22;480;48.124;11.578;2023-05-10T05:59:22;13.00;99.90
983;DHT22;480;48.124;11.578;2023-05-10T06:01:50;12.80;99.90
983;DHT22;480;48.124;11.578;2023-05-10T06:04:18;12.90;99.90
983;DHT22;480;48.124;11.578;2023-05-10T06:06:45;13.00;99.90
983;DHT22;480;48.124;11.578;2023-05-10T06:09:12;13.10;99.90
983;DHT22;480;48.124;11.578;2023-05-10T06:11:39;13.10;99.90
983;DHT22;480;48.124;11.578;2023-05-10T06:14:06;13.10;99.90
983;DHT22;480;48.124;11.578;2023-05-10T06:16:33;13.20;99.90
983;DHT22;480;48.124;11.578;2023-05-10T06:19:02;13.20;99.90
983;DHT22;480;48.124;11.578;2023-05-10T06:21:29;13.30;99.90
983;DHT22;480;48.124;11.578;2023-05-10T06:23:57;13.30;99.90
983;DHT22;480;48.124;11.578;2023-05-10T06:26:23;13.30;99.90
983;DHT22;480;48.124;11.578;2023-05-10T06:28:50;13.40;99.90
983;DHT22;480;48.124;11.578;2023-05-10T06:31:17;13.40;99.90
983;DHT22;480;48.124;11.578;2023-05-10T06:33:44;13.30;99.90
983;DHT22;480;48.124;11.578;2023-05-10T06:36:13;13.30;99.90
983;DHT22;480;48.124;11.578;2023-05-10T06:38:40;13.30;99.90
983;DHT22;480;48.124;11.578;2023-05-10T06:41:07;13.40;99.90
983;DHT22;480;48.124;11.578;2023-05-10T06:43:34;13.40;99.90
983;DHT22;480;48.124;11.578;2023-05-10T06:46:01;13.40;99.90
983;DHT22;480;48.124;11.578;2023-05-10T06:48:28;13.40;99.90
983;DHT22;480;48.124;11.578;2023-05-10T06:50:55;13.50;99.90
983;DHT22;480;48.124;11.578;2023-05-10T06:53:23;13.50;99.90
983;DHT22;480;48.124;11.578;2023-05-10T06:55:50;13.60;99.90
983;DHT22;480;48.124;11.578;2023-05-10T06:58:17;13.60;99.90
983;DHT22;480;48.124;11.578;2023-05-10T07:00:44;13.60;99.90
983;DHT22;480;48.124;11.578;2023-05-10T07:03:12;13.60;99.90
983;DHT22;480;48.124;11.578;2023-05-10T07:05:39;13.80;99.90
983;DHT22;480;48.124;11.578;2023-05-10T07:08:06;13.80;99.90
983;DHT22;480;48.124;11.578;2023-05-10T07:10:35;13.90;99.90
983;DHT22;480;48.124;11.578;2023-05-10T07:13:02;13.90;99.90
983;DHT22;480;48.124;11.578;2023-05-10T07:15:29;14.00;99.90
983;DHT22;480;48.124;11.578;2023-05-10T07:17:56;14.00;99.90
983;DHT22;480;48.124;11.578;2023-05-10T07:20:23;14.00;99.90
983;DHT22;480;48.124;11.578;2023-05-10T07:22:50;13.90;99.90
983;DHT22;480;48.124;11.578;2023-05-10T07:25:17;14.00;99.90
983;DHT22;480;48.124;11.578;2023-05-10T07:27:45;14.00;99.90
983;DHT22;480;48.124;11.578;2023-05-10T07:30:14;14.10;99.90
983;DHT22;480;48.124;11.578;2023-05-10T07:32:41;14.30;99.90
983;DHT22;480;48.124;11.578;2023-05-10T07:35:08;14.40;99.90
983;DHT22;480;48.124;11.578;2023-05-10T07:37:35;14.60;99.90
983;DHT22;480;48.124;11.578;2023-05-10T07:40:03;14.70;99.90
983;DHT22;480;48.124;11.578;2023-05-10T07:42:30;14.70;99.90
983;DHT22;480;48.124;11.578;2023-05-10T07:44:58;14.80;99.90
983;DHT22;480;48.124;11.578;2023-05-10T07:47:25;14.90;99.90
983;DHT22;480;48.124;11.578;2023-05-10T07:49:52;15.10;99.90
983;DHT22;480;48.124;11.578;2023-05-10T07:52:19;15.20;99.90
983;DHT22;480;48.124;11.578;2023-05-10T07:54:46;15.20;99.90
983;DHT22;480;48.124;11.578;2023-05-10T07:57:13;15.20;99.90
983;DHT22;480;48.124;11.578;2023-05-10T07:59:43;15.30;99.90
983;DHT22;480;48.124;11.578;2023-05-10T08:02:12;15.30;99.90
983;DHT22;480;48.124;11.578;2023-05-10T08:04:39;15.40;99.90
983;DHT22;480;48.124;11.578;2023-05-10T08:07:06;15.40;99.90
983;DHT22;480;48.124;11.578;2023-05-10T08:09:33;15.40;99.90
983;DHT22;480;48.124;11.578;2023-05-10T08:12:00;15.40;99.90
983;DHT22;480;48.124;11.578;2023-05-10T08:14:28;15.60;99.90
983;DHT22;480;48.124;11.578;2023-05-10T08:16:55;15.70;99.90
983;DHT22;480;48.124;11.578;2023-05-10T08:19:24;15.70;99.90
983;DHT22;480;48.124;11.578;2023-05-10T08:21:51;15.70;99.90
983;DHT22;480;48.124;11.578;2023-05-10T08:24:18;15.70;99.90
983;DHT22;480;48.124;11.578;2023-05-10T08:26:45;15.70;99.90
983;DHT22;480;48.124;11.578;2023-05-10T08:29:13;15.80;99.90
983;DHT22;480;48.124;11.578;2023-05-10T08:31:40;15.70;99.90
983;DHT22;480;48.124;11.578;2023-05-10T08:34:07;15.70;99.90
983;DHT22;480;48.124;11.578;2023-05-10T08:36:35;15.80;99.90
983;DHT22;480;48.124;11.578;2023-05-10T08:39:02;15.70;99.90
983;DHT22;480;48.124;11.578;2023-05-10T08:41:30;15.60;99.90
983;DHT22;480;48.124;11.578;2023-05-10T08:43:59;15.50;99.90
983;DHT22;480;48.124;11.578;2023-05-10T08:46:30;15.40;99.90
983;DHT22;480;48.124;11.578;2023-05-10T08:48:59;15.50;99.90
983;DHT22;480;48.124;11.578;2023-05-10T08:51:31;15.30;99.90
983;DHT22;480;48.124;11.578;2023-05-10T08:54:01;15.30;99.90
983;DHT22;480;48.124;11.578;2023-05-10T08:56:29;15.20;99.90
983;DHT22;480;48.124;11.578;2023-05-10T08:58:56;15.20;99.90
983;DHT22;480;48.124;11.578;2023-05-10T09:01:24;15.20;99.90
983;DHT22;480;48.124;11.578;2023-05-10T09:03:52;15.20;99.90
983;DHT22;480;48.124;11.578;2023-05-10T09:06:19;15.20;99.90
983;DHT22;480;48.124;11.578;2023-05-10T09:08:47;15.30;99.90
983;DHT22;480;48.124;11.578;2023-05-10T09:11:16;15.20;99.90
983;DHT22;480;48.124;11.578;2023-05-10T09:13:44;15.20;99.90
983;DHT22;480;48.124;11.578;2023-05-10T09:16:12;15.30;99.90
983;DHT22;480;48.124;11.578;2023-05-10T09:18:39;15.60;99.90
983;DHT22;480;48.124;11.578;2023-05-10T09:21:06;15.70;99.90
983;DHT22;480;48.124;11.578;2023-05-10T09:23:33;15.80;99.90
983;DHT22;480;48.124;11.578;2023-05-10T09:26:03;15.70;99.90
983;DHT22;480;48.124;11.578;2023-05-10T09:28:33;15.90;99.90
983;DHT22;480;48.124;11.578;2023-05-10T09:31:00;16.10;99.90
983;DHT22;480;48.124;11.578;2023-05-10T09:33:27;16.10;99.90
983;DHT22;480;48.124;11.578;2023-05-10T09:35:54;16.00;99.90
983;DHT22;480;48.124;11.578;2023-05-10T09:38:21;15.80;99.90
983;DHT22;480;48.124;11.578;2023-05-10T09:40:52;15.60;99.90
983;DHT22;480;48.124;11.578;2023-05-10T09:43:21;15.60;99.90
983;DHT22;480;48.124;11.578;2023-05-10T09:45:49;15.60;99.90
983;DHT22;480;48.124;11.578;2023-05-10T09:48:16;15.80;99.90
983;DHT22;480;48.124;11.578;2023-05-10T09:50:43;16.00;99.90
983;DHT22;480;48.124;11.578;2023-05-10T09:53:14;16.20;99.90
983;DHT22;480;48.124;11.578;2023-05-10T09:55:43;16.40;99.90
983;DHT22;480;48.124;11.578;2023-05-10T09:58:12;16.40;99.90
983;DHT22;480;48.124;11.578;2023-05-10T10:00:40;16.50;99.90
983;DHT22;480;48.124;11.578;2023-05-10T10:03:15;16.60;99.90
983;DHT22;480;48.124;11.578;2023-05-10T10:05:43;16.60;99.90
983;DHT22;480;48.124;11.578;2023-05-10T10:08:11;16.80;99.90
983;DHT22;480;48.124;11.578;2023-05-10T10:10:39;16.80;99.90
983;DHT22;480;48.124;11.578;2023-05-10T10:13:07;16.80;99.90
983;DHT22;480;48.124;11.578;2023-05-10T10:15:34;17.00;99.90
983;DHT22;480;48.124;11.578;2023-05-10T10:18:02;17.00;99.90
983;DHT22;480;48.124;11.578;2023-05-10T10:20:31;17.00;99.90
983;DHT22;480;48.124;11.578;2023-05-10T10:22:58;16.90;99.90
983;DHT22;480;48.124;11.578;2023-05-10T10:25:25;17.10;99.90
983;DHT22;480;48.124;11.578;2023-05-10T10:28:08;17.10;99.90
983;DHT22;480;48.124;11.578;2023-05-10T10:30:41;17.20;99.90
983;DHT22;480;48.124;11.578;2023-05-10T10:33:33;17.20;99.90
983;DHT22;480;48.124;11.578;2023-05-10T10:36:05;17.20;99.90
983;DHT22;480;48.124;11.578;2023-05-10T10:38:59;17.30;99.90
983;DHT22;480;48.124;11.578;2023-05-10T10:41:29;17.60;99.90
983;DHT22;480;48.124;11.578;2023-05-10T10:44:25;17.80;99.90
983;DHT22;480;48.124;11.578;2023-05-10T10:49:51;18.10;99.90
983;DHT22;480;48.124;11.578;2023-05-10T10:52:25;18.10;99.90
983;DHT22;480;48.124;11.578;2023-05-10T10:54:59;18.20;99.90
983;DHT22;480;48.124;11.578;2023-05-10T10:57:27;18.40;99.90
983;DHT22;480;48.124;11.578;2023-05-10T11:00:20;18.10;99.90
983;DHT22;480;48.124;11.578;2023-05-10T11:02:49;17.70;99.90
983;DHT22;480;48.124;11.578;2023-05-10T11:05:44;17.60;99.90
983;DHT22;480;48.124;11.578;2023-05-10T11:08:15;17.40;99.90
983;DHT22;480;48.124;11.578;2023-05-10T11:11:01;17.10;99.90
983;DHT22;480;48.124;11.578;2023-05-10T11:13:29;16.80;99.90
983;DHT22;480;48.124;11.578;2023-05-10T11:15:57;16.50;99.90
983;DHT22;480;48.124;11.578;2023-05-10T11:18:26;16.30;99.90
983;DHT22;480;48.124;11.578;2023-05-10T11:20:57;16.30;99.90
983;DHT22;480;48.124;11.578;2023-05-10T11:23:30;16.20;99.90
983;DHT22;480;48.124;11.578;2023-05-10T11:25:58;16.10;99.90
983;DHT22;480;48.124;11.578;2023-05-10T11:28:26;16.10;99.90
983;DHT22;480;48.124;11.578;2023-05-10T11:30:54;15.90;99.90
983;DHT22;480;48.124;11.578;2023-05-10T11:33:22;15.80;99.90
983;DHT22;480;48.124;11.578;2023-05-10T11:35:49;15.70;99.90
983;DHT22;480;48.124;11.578;2023-05-10T11:38:16;15.50;99.90
983;DHT22;480;48.124;11.578;2023-05-10T11:40:45;15.20;99.90
983;DHT22;480;48.124;11.578;2023-05-10T11:43:12;14.80;99.90
983;DHT22;480;48.124;11.578;2023-05-10T11:45:41;14.50;99.90
983;DHT22;480;48.124;11.578;2023-05-10T11:48:09;14.40;99.90
983;DHT22;480;48.124;11.578;2023-05-10T11:50:36;14.20;99.90
983;DHT22;480;48.124;11.578;2023-05-10T11:53:03;14.10;99.90
983;DHT22;480;48.124;11.578;2023-05-10T11:55:33;14.00;99.90
983;DHT22;480;48.124;11.578;2023-05-10T11:58:02;14.00;99.90
983;DHT22;480;48.124;11.578;2023-05-10T12:00:30;14.00;99.90
983;DHT22;480;48.124;11.578;2023-05-10T12:02:57;14.00;99.90
983;DHT22;480;48.124;11.578;2023-05-10T12:05:27;14.00;99.90
983;DHT22;480;48.124;11.578;2023-05-10T12:08:10;14.00;99.90
983;DHT22;480;48.124;11.578;2023-05-10T12:10:37;13.90;99.90
983;DHT22;480;48.124;11.578;2023-05-10T12:13:11;13.80;99.90
983;DHT22;480;48.124;11.578;2023-05-10T12:15:38;13.80;99.90
983;DHT22;480;48.124;11.578;2023-05-10T12:18:06;13.80;99.90
983;DHT22;480;48.124;11.578;2023-05-10T12:20:34;13.70;99.90
983;DHT22;480;48.124;11.578;2023-05-10T12:23:02;13.70;99.90
983;DHT22;480;48.124;11.578;2023-05-10T12:25:30;13.70;99.90
983;DHT22;480;48.124;11.578;2023-05-10T12:27:59;13.80;99.90
983;DHT22;480;48.124;11.578;2023-05-10T12:30:29;13.80;99.90
983;DHT22;480;48.124;11.578;2023-05-10T12:33:00;13.80;99.90
983;DHT22;480;48.124;11.578;2023-05-10T12:35:30;13.90;99.90
983;DHT22;480;48.124;11.578;2023-05-10T12:37:57;14.10;99.90
983;DHT22;480;48.124;11.578;2023-05-10T12:40:24;14.20;99.90
983;DHT22;480;48.124;11.578;2023-05-10T12:42:51;14.10;99.90
983;DHT22;480;48.124;11.578;2023-05-10T12:45:18;14.10;99.90
983;DHT22;480;48.124;11.578;2023-05-10T12:47:47;14.20;99.90
983;DHT22;480;48.124;11.578;2023-05-10T12:50:18;14.30;99.90
983;DHT22;480;48.124;11.578;2023-05-10T12:52:45;14.30;99.90
983;DHT22;480;48.124;11.578;2023-05-10T12:55:12;14.40;99.90
983;DHT22;480;48.124;11.578;2023-05-10T12:57:39;14.40;99.90
983;DHT22;480;48.124;11.578;2023-05-10T13:00:07;14.50;99.90
983;DHT22;480;48.124;11.578;2023-05-10T13:02:34;14.50;99.90
983;DHT22;480;48.124;11.578;2023-05-10T13:05:03;14.50;99.90
983;DHT22;480;48.124;11.578;2023-05-10T13:07:31;14.60;99.90
983;DHT22;480;48.124;11.578;2023-05-10T13:09:58;14.60;99.90
983;DHT22;480;48.124;11.578;2023-05-10T13:12:25;14.60;99.90
983;DHT22;480;48.124;11.578;2023-05-10T13:14:51;14.60;99.90
983;DHT22;480;48.124;11.578;2023-05-10T13:17:18;14.70;99.90
983;DHT22;480;48.124;11.578;2023-05-10T13:19:45;14.80;99.90
983;DHT22;480;48.124;11.578;2023-05-10T13:22:14;14.90;99.90
983;DHT22;480;48.124;11.578;2023-05-10T13:24:41;15.00;99.90
983;DHT22;480;48.124;11.578;2023-05-10T13:27:08;15.00;99.90
983;DHT22;480;48.124;11.578;2023-05-10T13:29:35;15.10;99.90
983;DHT22;480;48.124;11.578;2023-05-10T13:32:02;15.00;99.90
983;DHT22;480;48.124;11.578;2023-05-10T13:34:29;14.70;99.90
983;DHT22;480;48.124;11.578;2023-05-10T13:36:56;14.60;99.90
983;DHT22;480;48.124;11.578;2023-05-10T13:39:24;14.40;99.90
983;DHT22;480;48.124;11.578;2023-05-10T13:41:51;14.50;99.90
983;DHT22;480;48.124;11.578;2023-05-10T13:44:19;14.40;99.90
983;DHT22;480;48.124;11.578;2023-05-10T13:46:46;14.40;99.90
983;DHT22;480;48.124;11.578;2023-05-10T13:49:13;14.40;99.90
983;DHT22;480;48.124;11.578;2023-05-10T13:51:40;14.40;99.90
983;DHT22;480;48.124;11.578;2023-05-10T13:54:07;14.50;99.90
983;DHT22;480;48.124;11.578;2023-05-10T13:56:36;14.50;99.90
983;DHT22;480;48.124;11.578;2023-05-10T13:59:03;14.60;99.90
983;DHT22;480;48.124;11.578;2023-05-10T14:01:30;14.70;99.90
983;DHT22;480;48.124;11.578;2023-05-10T14:03:57;14.70;99.90
983;DHT22;480;48.124;11.578;2023-05-10T14:06:24;14.70;99.90
983;DHT22;480;48.124;11.578;2023-05-10T14:08:50;14.60;99.90
983;DHT22;480;48.124;11.578;2023-05-10T14:11:17;14.60;99.90
983;DHT22;480;48.124;11.578;2023-05-10T14:13:46;14.60;99.90
983;DHT22;480;48.124;11.578;2023-05-10T14:16:13;14.50;99.90
983;DHT22;480;48.124;11.578;2023-05-10T14:18:40;14.60;99.90
983;DHT22;480;48.124;11.578;2023-05-10T14:21:07;14.50;99.90
983;DHT22;480;48.124;11.578;2023-05-10T14:23:34;14.50;99.90
983;DHT22;480;48.124;11.578;2023-05-10T14:26:01;14.50;99.90
983;DHT22;480;48.124;11.578;2023-05-10T14:28:28;14.50;99.90
983;DHT22;480;48.124;11.578;2023-05-10T14:30:56;14.60;99.90
983;DHT22;480;48.124;11.578;2023-05-10T14:33:24;14.60;99.90
983;DHT22;480;48.124;11.578;2023-05-10T14:35:51;14.60;99.90
983;DHT22;480;48.124;11.578;2023-05-10T14:38:18;14.70;99.90
983;DHT22;480;48.124;11.578;2023-05-10T14:40:45;14.80;99.90
983;DHT22;480;48.124;11.578;2023-05-10T14:43:12;14.80;99.90
983;DHT22;480;48.124;11.578;2023-05-10T14:45:39;14.70;99.90
983;DHT22;480;48.124;11.578;2023-05-10T14:48:08;14.60;99.90
983;DHT22;480;48.124;11.578;2023-05-10T14:50:37;14.40;99.90
983;DHT22;480;48.124;11.578;2023-05-10T14:53:05;14.10;99.90
983;DHT22;480;48.124;11.578;2023-05-10T14:55:32;13.90;99.90
983;DHT22;480;48.124;11.578;2023-05-10T14:58:00;13.80;99.90
983;DHT22;480;48.124;11.578;2023-05-10T15:00:28;13.70;99.90
983;DHT22;480;48.124;11.578;2023-05-10T15:02:55;13.60;99.90
983;DHT22;480;48.124;11.578;2023-05-10T15:05:24;13.50;99.90
983;DHT22;480;48.124;11.578;2023-05-10T15:07:51;13.60;99.90
983;DHT22;480;48.124;11.578;2023-05-10T15:10:18;13.60;99.90
983;DHT22;480;48.124;11.578;2023-05-10T15:12:45;13.60;99.90
983;DHT22;480;48.124;11.578;2023-05-10T15:15:12;13.50;99.90
983;DHT22;480;48.124;11.578;2023-05-10T15:17:39;13.50;99.90
983;DHT22;480;48.124;11.578;2023-05-10T15:20:07;13.40;99.90
983;DHT22;480;48.124;11.578;2023-05-10T15:22:36;13.30;99.90
983;DHT22;480;48.124;11.578;2023-05-10T15:25:04;13.30;99.90
983;DHT22;480;48.124;11.578;2023-05-10T15:27:31;13.30;99.90
983;DHT22;480;48.124;11.578;2023-05-10T15:29:59;13.40;99.90
983;DHT22;480;48.124;11.578;2023-05-10T15:32:26;13.40;99.90
983;DHT22;480;48.124;11.578;2023-05-10T15:34:54;13.40;99.90
983;DHT22;480;48.124;11.578;2023-05-10T15:37:21;13.30;99.90
983;DHT22;480;48.124;11.578;2023-05-10T15:39:50;13.20;99.90
983;DHT22;480;48.124;11.578;2023-05-10T15:42:17;13.30;99.90
983;DHT22;480;48.124;11.578;2023-05-10T15:44:44;13.20;99.90
983;DHT22;480;48.124;11.578;2023-05-10T15:47:15;13.20;99.90
983;DHT22;480;48.124;11.578;2023-05-10T15:49:42;13.20;99.90
983;DHT22;480;48.124;11.578;2023-05-10T15:52:09;13.20;99.90
983;DHT22;480;48.124;11.578;2023-05-10T15:54:36;13.20;99.90
983;DHT22;480;48.124;11.578;2023-05-10T15:57:04;13.30;99.90
983;DHT22;480;48.124;11.578;2023-05-10T15:59:32;13.10;99.90
983;DHT22;480;48.124;11.578;2023-05-10T16:02:00;13.00;99.90
983;DHT22;480;48.124;11.578;2023-05-10T16:04:28;13.00;99.90
983;DHT22;480;48.124;11.578;2023-05-10T16:06:55;12.90;99.90
983;DHT22;480;48.124;11.578;2023-05-10T16:09:22;12.90;99.90
983;DHT22;480;48.124;11.578;2023-05-10T16:11:49;12.70;99.90
983;DHT22;480;48.124;11.578;2023-05-10T16:14:17;12.70;99.90
983;DHT22;480;48.124;11.578;2023-05-10T16:16:45;12.70;99.90
983;DHT22;480;48.124;11.578;2023-05-10T16:19:13;12.70;99.90
983;DHT22;480;48.124;11.578;2023-05-10T16:21:40;12.60;99.90
983;DHT22;480;48.124;11.578;2023-05-10T16:24:07;12.60;99.90
983;DHT22;480;48.124;11.578;2023-05-10T16:26:34;12.60;99.90
983;DHT22;480;48.124;11.578;2023-05-10T16:29:05;12.60;99.90
983;DHT22;480;48.124;11.578;2023-05-10T16:31:34;12.70;99.90